Daytona Beach, FL

11:41 AM EDT on April 21, 2015 (GMT -0400)
Embry Riddle Aeronautical University WeatherSTEM | | Change Station
CLOSE
Current Station
Personal Weather Station
Location: Daytona Beach, FL
Elevation: 42 ft
Nearby Weather Stations

Elev 42 ft 29.19 °N, 81.05 °W | Updated 8 minutes ago

Scattered Clouds
Scattered Clouds
77.8 °F
Feels Like 80 °F
N
6.0
Wind Variable Wind from WNW
Gusts 7.0 mph

Today
High -- | Low -- °F
--% Chance of Precip.
Yesterday
High -- | Low -- °F
Precip. -- in
6:52 AM 7:54 PM
Waxing Crescent, 11% visible
Pressure 29.99 in
Visibility 10.0 miles
Clouds Few 2000 ft
Few 15000 ft
Scattered Clouds 25000 ft
Heat Index 80 °F
Dew Point 68 °F
Humidity 71%
Rainfall 0.00 in
Snow Depth Not available.
UV 7.9 out of 12
Pollen 8.60 out of 12
Air Quality Not available.
Flu Activity Local Activity
METAR KDAB 211453Z 24006KT 10SM FEW020 FEW150 SCT250 24/21 A2999 RMK AO2 SLP155 T02440206 51014

More Conditions Fewer Conditions

Pressure 29.99 in
Visibility 10.0 miles
Clouds Few 2000 ft
Few 15000 ft
Scattered Clouds 25000 ft
Heat Index 80 °F
Dew Point 68 °F
Humidity 71%
Rainfall 0.00 in
Snow Depth Not available.
UV 7.9 out of 12
Pollen 8.60 out of 12
Air Quality Not available.
Flu Activity Local Activity
METAR KDAB 211453Z 24006KT 10SM FEW020 FEW150 SCT250 24/21 A2999 RMK AO2 SLP155 T02440206 51014

More Conditions Fewer Conditions

Nowcast | as of 9:41 am EDT on April 21, 2015

A dissipating stationary front over South Florida will provide the focus for a few light showers to develop around Lake Okeechobee through midday. Rainfall amounts will be less than a tenth of an inch. Elsewhere...skies will be cloudy over most of east central Florida as a dry cold front pushes into the area. Light west to southwest winds will prevail with temperatures warming into the low to mid 80s. Additional details...including graphics are available online at: http://www.Srh.NOAA.Gov/mlb/blog.Php

×

10-Day Weather Forecast

Almanac

Astronomy

Apr. 21, 2015 Rise Set
Actual Time
Civil Twilight
Nautical Twilight
Astronomical Twilight
Moon
Length of Visible Light
Length of Day
Tomorrow will be .
, % of the Moon is Illuminated

Today's Extremes

State Highs State Lows

Community

WunderPhotos

Upload Photos

1,815,428 photos uploaded!

WunderBlogs® & News

Nearby

Air Quality

  Air Quality AQ Index Pollutant
Not available.

Snow Depth

Station Depth Elevation

Earthquake Activity

City Distance Mag. Time & Date
Minimum magnitude displayed is 2.5.

Coastal Water Temperatures

Place Temperature

Stations

Nearby Weather Stations

Station Location Temp. Windchill Dew Point Humidity Wind Precip. Elev Updated Type